Marty, SD

5:39 PM CST on November 13, 2019 (GMT -0600)
Spencer Weather | | Change Station
Active Advisory: Flood Warning

Elev 1667 ft 42.88 °N, 98.70 °W | Updated 24 seconds ago

Overcast
Overcast
38.5 °F
Feels Like 38 °F
N
0
Wind Variable Wind from NNW
Gusts 0.0 mph

Today
High -- | Low -- °F
--% Chance of Precip.
Yesterday
High -- | Low -- °F
Precip. -- in
Pressure 30.04 in
Visibility 10.0 miles
Clouds Mostly Cloudy 1600 ft
Overcast 2300 ft
Windchill 38 °F
Dew Point 32 °F
Humidity 77%
Rainfall 0.24 in
Snow Depth Not available.
7:23 AM 5:12 PM
Full, 98% visible
METAR KONL 132315Z AUTO 33010G14KT 10SM BKN016 OVC023 04/01 A3004 RMK AO2 T00370010
Pressure 30.04 in
Visibility 10.0 miles
Clouds Mostly Cloudy 1600 ft
Overcast 2300 ft
Windchill 38 °F
Dew Point 32 °F
Humidity 77%
Rainfall 0.24 in
Snow Depth Not available.
7:23 AM 5:12 PM
Full, 98% visible
METAR KONL 132315Z AUTO 33010G14KT 10SM BKN016 OVC023 04/01 A3004 RMK AO2 T00370010

Get Your Daily Forecast Email!

Thanks for signing up!

Be on the lookout for a verification email in your inbox.

You'll start receiving severe weather alerts in your inbox..

×

10-Day Weather Forecast

Almanac

Astronomy

Nov. 13, 2019 Rise Set
Actual Time
Civil Twilight
Nautical Twilight
Astronomical Twilight
Moon
Length of Visible Light
Length of Day
Tomorrow will be .
, % of the Moon is Illuminated

Today's Extremes

State Highs State Lows

Community

WunderPhotos

Category 6

Welcome to Category 6. This is the collective home for Weather Underground's featured writeups by Dr. Jeff Masters (right), Bob Henson (left), Chris Burt, and other regular contributors.

Nearby

Air Quality

  Air Quality AQ Index Pollutant
Not available.

Snow Depth

Station Depth Elevation

Earthquake Activity

City Distance Mag. Time & Date
Minimum magnitude displayed is 2.5.

Coastal Water Temperatures

Place Temperature

Stations

Nearby Weather Stations

Station Location Temp. Windchill Dew Point Humidity Wind Precip. Elev Updated Type
                   

Watches & Warnings

Flood Warning
Issued: 9:37 AM CST Nov. 13, 2019 – National Weather Service

The Flood Warning continues for
the Missouri River near Verdel.
* Until further notice.
* At 09am Wednesday the stage was 24.79 feet.
* Flood stage is 24.00 feet.
* At stages near 25.0 feet... boat docks at lazy River Acres near
Verdel will be flooded and some permanent homes will be surrounded by
water.


Lat... Lon 4286 9831 4291 9830 4284 9810 4279 9811
          4282 9816 4285 9825




937 am CST Wed Nov 13 2019

The Flood Warning continues for
the Missouri River near Greenwood.
* Until further notice.
* At 09am Wednesday the stage was 32.13 feet.
* Flood stage is 30.00 feet.


Lat... Lon 4304 9859 4309 9854 4296 9844 4291 9830
          4286 9831 4293 9849